createdAt,value
2023-04-18T15:48:27.138Z,98.60
2023-04-18T15:53:32.706Z,99.60
2023-04-18T15:58:37.982Z,99.80
2023-04-18T16:03:49.829Z,99.90
2023-04-18T16:08:55.547Z,99.90
2023-04-18T16:19:28.590Z,99.90
2023-04-18T16:24:52.683Z,99.90
2023-04-18T16:30:00.443Z,99.90
2023-04-18T16:35:17.443Z,99.90
2023-04-18T16:40:23.471Z,99.90
2023-04-18T16:45:36.111Z,99.90
2023-04-18T16:50:55.450Z,99.90
2023-04-18T16:55:59.335Z,99.90
2023-04-18T17:01:04.603Z,99.90
2023-04-18T17:06:09.779Z,99.90
2023-04-18T17:11:14.966Z,99.90
2023-04-18T17:16:23.183Z,99.90
2023-04-18T17:21:28.430Z,99.90
2023-04-18T17:26:35.368Z,99.90
2023-04-18T17:31:40.703Z,99.90
2023-04-18T17:36:45.923Z,99.90
2023-04-18T17:41:51.518Z,99.90
2023-04-18T17:46:56.854Z,99.90
2023-04-18T17:52:05.333Z,99.90
2023-04-18T17:57:11.402Z,99.90
2023-04-18T18:02:18.755Z,99.90
2023-04-18T18:07:24.120Z,99.90
2023-04-18T18:12:29.393Z,99.90
2023-04-18T18:17:34.888Z,99.90
2023-04-18T18:22:40.966Z,99.90
2023-04-18T18:27:46.841Z,99.90
2023-04-18T18:32:53.600Z,99.90
2023-04-18T18:37:58.942Z,99.90
2023-04-18T18:43:06.148Z,99.90
2023-04-18T18:48:13.382Z,99.90
2023-04-18T18:53:32.374Z,99.90
2023-04-18T18:58:39.617Z,99.90
2023-04-18T19:03:55.327Z,99.90
2023-04-18T19:09:00.688Z,99.90
2023-04-18T19:14:06.032Z,99.90
2023-04-18T19:19:11.445Z,99.90
2023-04-18T19:24:18.726Z,99.90
2023-04-18T19:29:24.338Z,98.60
2023-04-18T19:34:29.719Z,98.80
2023-04-18T19:39:35.018Z,98.80
2023-04-18T19:44:40.365Z,97.70
2023-04-18T19:49:45.573Z,93.40
2023-04-18T19:54:50.995Z,92.20
2023-04-18T19:59:57.390Z,92.30
2023-04-18T20:05:02.879Z,92.70
2023-04-18T20:10:12.133Z,93.10
2023-04-18T20:15:17.594Z,93.40
2023-04-18T20:20:22.849Z,93.40
2023-04-18T20:25:27.994Z,93.10
2023-04-18T20:30:35.498Z,93.90
2023-04-18T20:35:42.354Z,94.30
2023-04-18T20:40:47.483Z,94.50
2023-04-18T20:45:54.225Z,95.20
2023-04-18T20:50:59.564Z,95.80
2023-04-18T20:56:04.759Z,96.00
2023-04-18T21:01:09.994Z,96.80
2023-04-18T21:06:16.416Z,97.10
2023-04-18T21:11:21.702Z,97.70
2023-04-18T21:16:27.078Z,97.90
2023-04-18T21:21:34.292Z,98.10
2023-04-18T21:26:40.715Z,98.50
2023-04-18T21:31:47.423Z,97.90
2023-04-18T21:36:52.710Z,98.00
2023-04-18T21:41:58.123Z,98.20
2023-04-18T21:47:03.320Z,97.20
2023-04-18T21:52:09.153Z,96.80
2023-04-18T21:57:14.282Z,97.00
2023-04-18T22:02:19.454Z,96.40
2023-04-18T22:07:26.238Z,96.10
2023-04-18T22:12:33.037Z,96.20
2023-04-18T22:17:38.390Z,95.80
2023-04-18T22:22:43.792Z,96.40
2023-04-18T22:27:49.066Z,97.00
2023-04-18T22:32:54.774Z,96.70
2023-04-18T22:38:00.047Z,96.90
2023-04-18T22:43:05.342Z,97.60
2023-04-18T22:48:12.185Z,97.00
2023-04-18T22:53:18.525Z,97.40
2023-04-18T22:58:23.774Z,97.40
2023-04-18T23:03:29.118Z,97.50
2023-04-18T23:08:35.052Z,97.50
2023-04-18T23:13:41.479Z,97.70
2023-04-18T23:18:46.542Z,97.80
2023-04-18T23:23:51.720Z,97.50
2023-04-18T23:28:56.916Z,97.70
2023-04-18T23:34:02.123Z,97.80
2023-04-18T23:39:08.762Z,97.90
2023-04-18T23:44:14.275Z,98.10
2023-04-18T23:49:19.788Z,98.30
2023-04-18T23:54:24.851Z,98.30
2023-04-18T23:59:29.970Z,98.60
